createdAt,value
2023-03-02T00:00:22.935Z,958.07
2023-03-02T00:01:22.907Z,958.07
2023-03-02T00:02:22.948Z,958.04
2023-03-02T00:03:22.883Z,958.08
2023-03-02T00:04:22.844Z,958.07
2023-03-02T00:05:22.838Z,958.03
2023-03-02T00:06:22.791Z,958.08
2023-03-02T00:07:22.776Z,958.09
2023-03-02T00:08:22.747Z,958.12
2023-03-02T00:09:22.725Z,958.13
2023-03-02T00:10:22.703Z,958.1
2023-03-02T00:11:22.708Z,958.1
2023-03-02T00:12:22.659Z,958.07
2023-03-02T00:13:22.635Z,958.12
2023-03-02T00:14:22.614Z,958.07
2023-03-02T00:15:22.588Z,958.06
2023-03-02T00:16:22.631Z,958.02
2023-03-02T00:17:22.544Z,958.05
2023-03-02T00:18:22.533Z,958.08
2023-03-02T00:19:22.504Z,958.13
2023-03-02T00:20:22.479Z,958.03
2023-03-02T00:21:22.488Z,958.03
2023-03-02T00:22:22.432Z,958.09
2023-03-02T00:23:22.411Z,958.04
2023-03-02T00:24:22.387Z,958.02
2023-03-02T00:25:22.370Z,958.01
2023-03-02T00:26:22.354Z,958.04
2023-03-02T00:27:22.330Z,957.99
2023-03-02T00:28:22.319Z,957.94
2023-03-02T00:29:22.282Z,958.01
2023-03-02T00:30:22.256Z,958.02
2023-03-02T00:31:22.259Z,958
2023-03-02T00:32:22.281Z,958.02
2023-03-02T00:33:22.192Z,958.01
2023-03-02T00:34:22.166Z,958.03
2023-03-02T00:35:22.192Z,958.06
2023-03-02T00:36:22.133Z,958.05
2023-03-02T00:37:22.136Z,958.06
2023-03-02T00:38:22.089Z,958.07
2023-03-02T00:39:22.063Z,958.1
2023-03-02T00:40:22.035Z,958.05
2023-03-02T00:41:22.013Z,958.05
2023-03-02T00:42:22.001Z,958.08
2023-03-02T00:43:21.968Z,958.04
2023-03-02T00:44:21.941Z,958.07
2023-03-02T00:45:21.932Z,958.1
2023-03-02T00:46:21.904Z,958.09
2023-03-02T00:47:21.883Z,958.11
2023-03-02T00:48:21.854Z,958.07
2023-03-02T00:49:21.837Z,958.04
2023-03-02T00:50:21.821Z,958.09
2023-03-02T00:51:21.803Z,958.08
2023-03-02T00:52:21.949Z,958.05
2023-03-02T00:53:21.946Z,958.05
2023-03-02T00:54:21.894Z,958
2023-03-02T00:55:21.875Z,958
2023-03-02T00:56:21.849Z,958.03
2023-03-02T00:57:21.829Z,958
2023-03-02T00:58:21.803Z,957.98
2023-03-02T00:59:21.783Z,958
2023-03-02T01:00:21.760Z,958.05
2023-03-02T01:01:21.738Z,957.99
2023-03-02T01:02:21.859Z,958.07
2023-03-02T01:03:21.796Z,958.12
2023-03-02T01:04:21.672Z,958.11
2023-03-02T01:05:21.651Z,958.11
2023-03-02T01:06:21.630Z,958.1
2023-03-02T01:07:21.620Z,958.13
2023-03-02T01:08:21.586Z,958.11
2023-03-02T01:09:21.591Z,958.15
2023-03-02T01:10:21.545Z,958.17
2023-03-02T01:11:21.521Z,958.16
2023-03-02T01:12:21.504Z,958.14
2023-03-02T01:13:21.474Z,958.09
2023-03-02T01:14:21.463Z,958.13
2023-03-02T01:15:21.430Z,958.04
2023-03-02T01:16:21.433Z,958.06
2023-03-02T01:17:21.387Z,958.05
2023-03-02T01:18:21.363Z,958.06
2023-03-02T01:19:21.340Z,958.05
2023-03-02T01:20:21.320Z,958.05
2023-03-02T01:21:21.296Z,958.08
2023-03-02T01:22:21.276Z,958.04
2023-03-02T01:23:21.251Z,958.06
2023-03-02T01:24:21.233Z,958.05
2023-03-02T01:25:21.234Z,958.01
2023-03-02T01:26:21.186Z,958
2023-03-02T01:27:21.165Z,958.01
2023-03-02T01:28:21.141Z,958.06
2023-03-02T01:29:21.124Z,958.02
2023-03-02T01:30:21.096Z,957.98
2023-03-02T01:31:21.087Z,958
2023-03-02T01:32:21.118Z,957.94
2023-03-02T01:33:21.034Z,957.97
2023-03-02T01:34:21.016Z,957.93
2023-03-02T01:35:21.057Z,957.98
2023-03-02T01:36:20.962Z,957.9
2023-03-02T01:37:20.965Z,957.94
2023-03-02T01:38:21.009Z,957.94
2023-03-02T01:39:20.891Z,957.92
2023-03-02T01:40:20.872Z,957.94
2023-03-02T01:41:20.874Z,957.91
2023-03-02T01:42:20.828Z,957.9
2023-03-02T01:43:20.806Z,957.86
2023-03-02T01:44:20.781Z,957.83
2023-03-02T01:45:20.756Z,957.87
2023-03-02T01:46:20.735Z,957.85
2023-03-02T01:47:20.714Z,957.84
2023-03-02T01:48:20.690Z,957.81
2023-03-02T01:49:20.665Z,957.83
2023-03-02T01:50:20.644Z,957.81
2023-03-02T01:51:20.620Z,957.8
2023-03-02T01:52:20.626Z,957.81
2023-03-02T01:53:20.575Z,957.79
2023-03-02T01:54:20.554Z,957.77
2023-03-02T01:55:20.529Z,957.77
2023-03-02T01:56:20.509Z,957.75
2023-03-02T01:57:20.513Z,957.73
2023-03-02T01:58:20.464Z,957.73
2023-03-02T01:59:20.442Z,957.73
2023-03-02T02:00:20.417Z,957.71
2023-03-02T02:01:20.448Z,957.7
2023-03-02T02:02:20.373Z,957.63
2023-03-02T02:03:20.353Z,957.67
2023-03-02T02:04:20.361Z,957.69
2023-03-02T02:05:20.309Z,957.66
2023-03-02T02:06:20.284Z,957.65
2023-03-02T02:07:20.263Z,957.68
2023-03-02T02:08:20.238Z,957.54
2023-03-02T02:09:20.224Z,957.56
2023-03-02T02:10:20.193Z,957.56
2023-03-02T02:11:20.586Z,957.48
2023-03-02T02:12:20.549Z,957.46
2023-03-02T02:13:20.553Z,957.48
2023-03-02T02:14:20.534Z,957.47
2023-03-02T02:15:20.491Z,957.37
2023-03-02T02:16:21.169Z,957.37
2023-03-02T02:17:21.001Z,957.36
2023-03-02T02:18:20.983Z,957.39
2023-03-02T02:19:20.958Z,957.37
2023-03-02T02:20:20.938Z,957.42
2023-03-02T02:21:20.913Z,957.37
2023-03-02T02:22:20.891Z,957.36
2023-03-02T02:23:20.867Z,957.37
2023-03-02T02:24:20.849Z,957.35
2023-03-02T02:25:20.824Z,957.32
2023-03-02T02:26:20.798Z,957.32
2023-03-02T02:27:20.783Z,957.33
2023-03-02T02:28:20.753Z,957.33
2023-03-02T02:29:20.766Z,957.27
2023-03-02T02:30:20.709Z,957.26
2023-03-02T02:31:20.752Z,957.3
2023-03-02T02:32:20.770Z,957.22
2023-03-02T02:33:20.650Z,957.27
2023-03-02T02:34:20.618Z,957.25
2023-03-02T02:35:20.691Z,957.25
2023-03-02T02:36:20.574Z,957.24
2023-03-02T02:37:20.556Z,957.24
2023-03-02T02:38:20.534Z,957.22
2023-03-02T02:39:20.508Z,957.18
2023-03-02T02:40:20.800Z,957.16
2023-03-02T02:41:20.779Z,957.13
2023-03-02T02:42:20.756Z,957.16
2023-03-02T02:43:20.734Z,957.19
2023-03-02T02:44:20.710Z,957.16
2023-03-02T02:45:20.717Z,957.12
2023-03-02T02:46:20.738Z,957.15
2023-03-02T02:47:20.653Z,957.11
2023-03-02T02:48:20.622Z,957.11
2023-03-02T02:49:20.599Z,957.15
2023-03-02T02:50:20.574Z,957.06
2023-03-02T02:51:20.552Z,957.15
2023-03-02T02:52:20.538Z,957.12
2023-03-02T02:53:20.507Z,957.16
2023-03-02T02:54:20.484Z,957.17
2023-03-02T02:55:20.474Z,957.13
2023-03-02T02:56:20.442Z,957.1
2023-03-02T02:57:20.417Z,957.13
2023-03-02T02:58:20.404Z,957.15
2023-03-02T02:59:20.381Z,957.16
2023-03-02T03:00:20.352Z,957.16
2023-03-02T03:01:20.423Z,957.21
2023-03-02T03:02:20.306Z,957.24
2023-03-02T03:03:20.283Z,957.22
2023-03-02T03:04:20.359Z,957.27
2023-03-02T03:05:20.242Z,957.2
2023-03-02T03:06:20.217Z,957.21
2023-03-02T03:07:20.206Z,957.26
2023-03-02T03:08:20.173Z,957.22
2023-03-02T03:09:20.187Z,957.22
2023-03-02T03:10:20.131Z,957.21
2023-03-02T03:11:20.101Z,957.21
2023-03-02T03:12:20.081Z,957.17
2023-03-02T03:13:20.057Z,957.16
2023-03-02T03:14:20.043Z,957.19
2023-03-02T03:15:20.013Z,957.18
2023-03-02T03:16:20.018Z,957.16
2023-03-02T03:17:19.990Z,957.18
2023-03-02T03:18:19.946Z,957.17
2023-03-02T03:19:19.921Z,957.12
2023-03-02T03:20:20.700Z,957.17
2023-03-02T03:21:20.671Z,957.13
2023-03-02T03:22:20.651Z,957.1
2023-03-02T03:23:20.631Z,957.12
2023-03-02T03:24:20.605Z,957.16
2023-03-02T03:25:20.580Z,957.16
2023-03-02T03:26:20.558Z,957.15
2023-03-02T03:27:20.538Z,957.13
2023-03-02T03:28:20.513Z,957.15
2023-03-02T03:29:20.494Z,957.16
2023-03-02T03:30:20.469Z,957.14
2023-03-02T03:31:20.525Z,957.12
2023-03-02T03:32:20.454Z,957.15
2023-03-02T03:49:53.636Z,957.19
2023-03-02T03:50:53.586Z,957.18
2023-03-02T03:51:53.557Z,957.2
2023-03-02T03:52:53.530Z,957.19
2023-03-02T03:53:53.510Z,957.24
2023-03-02T03:54:53.484Z,957.22
2023-03-02T03:55:53.462Z,957.22
2023-03-02T03:56:53.438Z,957.23
2023-03-02T03:57:53.416Z,957.19
2023-03-02T03:58:53.398Z,957.22
2023-03-02T03:59:53.368Z,957.21
2023-03-02T04:00:53.346Z,957.19
2023-03-02T04:01:53.382Z,957.22
2023-03-02T04:02:53.405Z,957.17
2023-03-02T04:03:53.280Z,957.21
2023-03-02T04:04:53.257Z,957.14
2023-03-02T04:05:53.256Z,957.17
2023-03-02T04:06:53.206Z,957.14
2023-03-02T04:07:53.188Z,957.18
2023-03-02T04:08:53.159Z,957.16
2023-03-02T04:09:53.140Z,957.18
2023-03-02T04:10:53.114Z,957.14
2023-03-02T04:11:53.093Z,957.14
2023-03-02T04:12:53.068Z,957.18
2023-03-02T04:13:53.047Z,957.17
2023-03-02T04:14:53.022Z,957.15
2023-03-02T04:15:53.068Z,957.13
2023-03-02T04:16:52.978Z,957.13
2023-03-02T04:17:52.956Z,957.11
2023-03-02T04:18:52.931Z,957.11
2023-03-02T04:19:52.918Z,957.08
2023-03-02T04:20:52.884Z,957.12
2023-03-02T04:21:52.891Z,957.09
2023-03-02T04:22:52.841Z,957.07
2023-03-02T04:23:52.819Z,957.09
2023-03-02T04:24:52.794Z,957.11
2023-03-02T04:25:52.773Z,957.12
2023-03-02T04:26:52.755Z,957.09
2023-03-02T04:27:52.732Z,957.1
2023-03-02T04:28:52.728Z,957.1
2023-03-02T04:29:52.686Z,957.1
2023-03-02T04:30:52.691Z,957.04
2023-03-02T04:31:52.717Z,957.02
2023-03-02T04:32:52.644Z,956.99
2023-03-02T04:33:52.600Z,956.96
2023-03-02T04:34:52.578Z,957.01
2023-03-02T04:35:52.614Z,956.95
2023-03-02T04:36:52.532Z,956.97
2023-03-02T04:37:52.554Z,956.96
2023-03-02T04:38:52.490Z,956.97
2023-03-02T04:39:52.468Z,956.97
2023-03-02T04:40:52.446Z,956.95
2023-03-02T04:41:52.423Z,956.96
2023-03-02T04:42:52.404Z,957
2023-03-02T04:43:52.378Z,956.99
2023-03-02T04:44:52.355Z,956.93
2023-03-02T04:45:52.337Z,956.99
2023-03-02T04:46:52.375Z,956.98
2023-03-02T04:47:52.286Z,956.96
2023-03-02T04:48:52.266Z,956.95
2023-03-02T04:49:52.242Z,956.96
2023-03-02T04:50:52.236Z,957
2023-03-02T04:51:52.196Z,957
2023-03-02T04:52:52.178Z,957
2023-03-02T04:53:52.179Z,957.01
2023-03-02T04:54:52.133Z,957.05
2023-03-02T04:55:52.115Z,957.01
2023-03-02T04:56:52.106Z,957.02
2023-03-02T04:57:52.063Z,957.02
2023-03-02T04:58:52.046Z,956.98
2023-03-02T04:59:52.019Z,957.01
2023-03-02T05:00:51.996Z,957.02
2023-03-02T05:01:51.992Z,957
2023-03-02T05:02:51.956Z,957
2023-03-02T05:03:51.925Z,957.01
2023-03-02T05:04:51.996Z,957.01
2023-03-02T05:05:51.880Z,957.05
2023-03-02T05:06:51.859Z,956.99
2023-03-02T05:07:52.130Z,957.05
2023-03-02T05:08:52.111Z,957.03
2023-03-02T05:09:52.106Z,957.04
2023-03-02T05:10:52.064Z,957.07
2023-03-02T05:11:52.041Z,957.07
2023-03-02T05:12:52.018Z,957.03
2023-03-02T05:13:52.005Z,957.03
2023-03-02T05:14:51.973Z,957.05
2023-03-02T05:15:51.969Z,957.08
2023-03-02T05:16:51.928Z,957.06
2023-03-02T05:17:51.910Z,957.11
2023-03-02T05:18:51.882Z,957.11
2023-03-02T05:19:51.859Z,957.05
2023-03-02T05:20:51.838Z,957.12
2023-03-02T05:21:51.812Z,957.08
2023-03-02T05:22:51.794Z,957.05
2023-03-02T05:23:51.769Z,957.14
2023-03-02T05:24:51.750Z,957.13
2023-03-02T05:25:51.789Z,957.11
2023-03-02T05:26:51.705Z,957.13
2023-03-02T05:27:51.679Z,957.12
2023-03-02T05:28:53.922Z,957.14
2023-03-02T05:29:51.634Z,957.12
2023-03-02T05:30:51.619Z,957.11
2023-03-02T05:31:51.744Z,957.09
2023-03-02T05:32:51.628Z,957.12
2023-03-02T05:33:51.612Z,957.11
2023-03-02T05:34:51.581Z,957.11
2023-03-02T05:35:51.607Z,957.13
2023-03-02T05:36:51.537Z,957.11
2023-03-02T05:37:51.523Z,957.17
2023-03-02T05:38:51.492Z,957.15
2023-03-02T05:39:51.470Z,957.15
2023-03-02T05:40:51.446Z,957.13
2023-03-02T05:41:51.457Z,957.19
2023-03-02T05:42:51.400Z,957.15
2023-03-02T05:43:51.381Z,957.18
2023-03-02T05:44:51.355Z,957.18
2023-03-02T05:45:51.332Z,957.2
2023-03-02T05:46:51.375Z,957.19
2023-03-02T05:47:51.290Z,957.16
2023-03-02T05:48:51.270Z,957.19
2023-03-02T05:49:51.249Z,957.2
2023-03-02T05:50:51.221Z,957.13
2023-03-02T05:51:51.207Z,957.16
2023-03-02T05:52:51.176Z,957.14
2023-03-02T05:53:51.173Z,957.12
2023-03-02T05:54:51.139Z,957.13
2023-03-02T05:55:51.112Z,957.13
2023-03-02T05:56:51.088Z,957.16
2023-03-02T05:57:51.101Z,957.12
2023-03-02T05:58:51.057Z,957.18
2023-03-02T05:59:51.031Z,957.14
2023-03-02T06:00:51.007Z,957.13
2023-03-02T06:01:50.987Z,957.16
2023-03-02T06:02:51.042Z,957.14
2023-03-02T06:03:50.930Z,957.1
2023-03-02T06:04:50.906Z,957.15
2023-03-02T06:05:50.989Z,957.18
2023-03-02T06:06:50.860Z,957.16
2023-03-02T06:07:50.843Z,957.16
2023-03-02T06:08:50.819Z,957.15
2023-03-02T06:09:50.795Z,957.12
2023-03-02T06:10:50.954Z,957.15
2023-03-02T06:11:50.750Z,957.13
2023-03-02T06:12:50.753Z,957.14
2023-03-02T06:13:50.739Z,957.13
2023-03-02T06:14:50.688Z,957.14
2023-03-02T06:15:50.660Z,957.12
2023-03-02T06:16:50.664Z,957.13
2023-03-02T06:17:50.626Z,957.12
2023-03-02T06:18:50.619Z,957.14
2023-03-02T06:19:50.572Z,957.13
2023-03-02T06:20:50.570Z,957.12
2023-03-02T06:21:50.530Z,957.13
2023-03-02T06:22:50.503Z,957.11
2023-03-02T06:23:50.483Z,957.16
2023-03-02T06:24:50.461Z,957.13
2023-03-02T06:25:50.435Z,957.16
2023-03-02T06:26:50.414Z,957.16
2023-03-02T06:27:50.391Z,957.18
2023-03-02T06:28:53.077Z,957.22
2023-03-02T06:29:50.373Z,957.21
2023-03-02T06:30:50.332Z,957.2
2023-03-02T06:31:50.445Z,957.21
2023-03-02T06:32:50.297Z,957.24
2023-03-02T06:33:50.256Z,957.25
2023-03-02T06:34:50.241Z,957.29
2023-03-02T06:35:50.382Z,957.27
2023-03-02T06:36:50.614Z,957.28
2023-03-02T06:37:50.590Z,957.31
2023-03-02T06:38:50.570Z,957.33
2023-03-02T06:39:50.553Z,957.3
2023-03-02T06:40:50.527Z,957.35
2023-03-02T06:41:50.506Z,957.31
2023-03-02T06:42:50.488Z,957.27
2023-03-02T06:43:50.477Z,957.26
2023-03-02T06:44:50.438Z,957.29
2023-03-02T06:45:50.580Z,957.27
2023-03-02T06:46:50.395Z,957.27
2023-03-02T06:47:50.369Z,957.25
2023-03-02T06:48:50.356Z,957.26
2023-03-02T06:49:50.347Z,957.25
2023-03-02T06:50:50.322Z,957.27
2023-03-02T06:51:50.281Z,957.3
2023-03-02T06:52:50.261Z,957.24
2023-03-02T06:53:50.236Z,957.31
2023-03-02T06:54:50.220Z,957.27
2023-03-02T06:55:50.192Z,957.3
2023-03-02T06:56:50.180Z,957.32
2023-03-02T06:57:50.156Z,957.3
2023-03-02T06:58:50.129Z,957.29
2023-03-02T06:59:50.105Z,957.3
2023-03-02T07:00:50.089Z,957.28
2023-03-02T07:01:50.087Z,957.36
2023-03-02T07:02:50.061Z,957.35
2023-03-02T07:03:50.065Z,957.33
2023-03-02T07:04:49.993Z,957.37
2023-03-02T07:05:49.972Z,957.4
2023-03-02T07:06:49.949Z,957.37
2023-03-02T07:07:49.944Z,957.38
2023-03-02T07:08:49.926Z,957.35
2023-03-02T07:09:49.884Z,957.37
2023-03-02T07:10:49.862Z,957.38
2023-03-02T07:11:49.834Z,957.36
2023-03-02T07:12:49.812Z,957.38
2023-03-02T07:13:49.787Z,957.37
2023-03-02T07:14:49.765Z,957.4
2023-03-02T07:15:49.750Z,957.37
2023-03-02T07:16:49.786Z,957.36
2023-03-02T07:17:49.779Z,957.39
2023-03-02T07:18:49.678Z,957.39
2023-03-02T07:19:49.664Z,957.35
2023-03-02T07:20:49.638Z,957.35
2023-03-02T07:21:49.615Z,957.38
2023-03-02T07:22:49.592Z,957.36
2023-03-02T07:23:49.570Z,957.36
2023-03-02T07:24:49.546Z,957.35
2023-03-02T07:25:49.527Z,957.38
2023-03-02T07:26:49.501Z,957.42
2023-03-02T07:27:49.484Z,957.4
2023-03-02T07:28:49.462Z,957.46
2023-03-02T07:29:49.440Z,957.43
2023-03-02T07:30:49.445Z,957.41
2023-03-02T07:31:49.391Z,957.41
2023-03-02T07:32:49.377Z,957.42
2023-03-02T07:33:49.379Z,957.39
2023-03-02T07:34:49.334Z,957.36
2023-03-02T07:35:49.350Z,957.35
2023-03-02T07:36:49.281Z,957.42
2023-03-02T07:37:49.261Z,957.42
2023-03-02T07:38:49.242Z,957.38
2023-03-02T07:39:49.222Z,957.41
2023-03-02T07:40:49.196Z,957.43
2023-03-02T07:41:49.175Z,957.35
2023-03-02T07:42:49.149Z,957.39
2023-03-02T07:43:49.142Z,957.41
2023-03-02T07:44:49.123Z,957.4
2023-03-02T07:45:49.087Z,957.41
2023-03-02T07:46:49.088Z,957.41
2023-03-02T07:47:49.047Z,957.39
2023-03-02T07:48:49.024Z,957.42
2023-03-02T07:49:49.034Z,957.4
2023-03-02T07:50:48.981Z,957.41
2023-03-02T07:51:48.964Z,957.39
2023-03-02T07:52:48.946Z,957.39
2023-03-02T07:53:48.917Z,957.37
2023-03-02T07:54:48.895Z,957.39
2023-03-02T07:55:48.875Z,957.36
2023-03-02T07:56:48.848Z,957.4
2023-03-02T07:57:48.839Z,957.35
2023-03-02T07:58:48.806Z,957.34
2023-03-02T07:59:48.794Z,957.36
2023-03-02T08:00:48.763Z,957.38
2023-03-02T08:01:48.811Z,957.38
2023-03-02T08:02:48.800Z,957.38
2023-03-02T08:03:48.700Z,957.44
2023-03-02T08:04:48.681Z,957.4
2023-03-02T08:05:48.823Z,957.43
2023-03-02T08:06:48.643Z,957.44
2023-03-02T08:07:48.613Z,957.4
2023-03-02T08:08:48.601Z,957.44
2023-03-02T08:09:48.585Z,957.44
2023-03-02T08:10:48.552Z,957.38
2023-03-02T08:11:48.529Z,957.42
2023-03-02T08:12:48.509Z,957.4
2023-03-02T08:13:48.487Z,957.43
2023-03-02T08:14:48.468Z,957.43
2023-03-02T08:15:48.494Z,957.43
2023-03-02T08:16:48.427Z,957.44
2023-03-02T08:17:48.408Z,957.45
2023-03-02T08:18:48.409Z,957.43
2023-03-02T08:19:48.390Z,957.45
2023-03-02T08:20:48.342Z,957.45
2023-03-02T08:21:48.441Z,957.44
2023-03-02T08:22:48.301Z,957.45
2023-03-02T08:23:48.319Z,957.47
2023-03-02T08:24:48.272Z,957.45
2023-03-02T08:25:48.235Z,957.46
2023-03-02T08:26:48.217Z,957.45
2023-03-02T08:27:48.209Z,957.45
2023-03-02T08:28:48.186Z,957.47
2023-03-02T08:29:48.158Z,957.49
2023-03-02T08:30:48.158Z,957.46
2023-03-02T08:31:48.154Z,957.41
2023-03-02T08:32:48.201Z,957.47
2023-03-02T08:33:48.080Z,957.47
2023-03-02T08:34:48.051Z,957.46
2023-03-02T08:35:48.072Z,957.48
2023-03-02T08:36:48.011Z,957.45
2023-03-02T08:37:48.012Z,957.46
2023-03-02T08:38:48.026Z,957.43
2023-03-02T08:39:47.963Z,957.43
2023-03-02T08:40:47.928Z,957.43
2023-03-02T08:41:47.905Z,957.38
2023-03-02T08:42:47.888Z,957.39
2023-03-02T08:43:47.863Z,957.41
2023-03-02T08:44:47.865Z,957.38
2023-03-02T08:45:47.869Z,957.36
2023-03-02T08:46:47.805Z,957.31
2023-03-02T08:47:47.779Z,957.32
2023-03-02T08:48:47.837Z,957.24
2023-03-02T08:49:48.232Z,957.27
2023-03-02T08:50:47.731Z,957.24
2023-03-02T08:51:47.699Z,957.25
2023-03-02T08:52:47.715Z,957.19
2023-03-02T08:53:47.682Z,957.19
2023-03-02T08:54:47.699Z,957.19
2023-03-02T08:55:47.621Z,957.13
2023-03-02T08:56:47.600Z,957.16
2023-03-02T08:57:47.578Z,957.16
2023-03-02T08:58:47.557Z,957.1
2023-03-02T08:59:47.536Z,957.08
2023-03-02T09:00:47.574Z,957.16
2023-03-02T09:01:47.578Z,957.13
2023-03-02T09:02:47.498Z,957.13
2023-03-02T09:03:47.472Z,957.16
2023-03-02T09:04:47.482Z,957.15
2023-03-02T09:05:47.436Z,957.13
2023-03-02T09:06:47.398Z,957.16
2023-03-02T09:07:47.375Z,957.11
2023-03-02T09:08:47.352Z,957.11
2023-03-02T09:09:47.381Z,957.14
2023-03-02T09:10:47.314Z,957.12
2023-03-02T09:11:47.296Z,957.09
2023-03-02T09:12:47.273Z,957.1
2023-03-02T09:13:47.254Z,957.07
2023-03-02T09:14:47.234Z,957.08
2023-03-02T09:15:47.225Z,957.11
2023-03-02T09:16:47.222Z,957.09
2023-03-02T09:17:47.173Z,957.1
2023-03-02T09:18:47.165Z,957.11
2023-03-02T09:19:47.142Z,957.15
2023-03-02T09:20:47.115Z,957.12
2023-03-02T09:21:47.114Z,957.12
2023-03-02T09:22:47.077Z,957.14
2023-03-02T09:23:47.182Z,957.12
2023-03-02T09:24:47.139Z,957.12
2023-03-02T09:25:47.153Z,957.09
2023-03-02T09:26:47.098Z,957.1
2023-03-02T09:27:47.086Z,957.14
2023-03-02T09:28:47.064Z,957.14
2023-03-02T09:29:47.046Z,957.17
2023-03-02T09:30:47.024Z,957.17
2023-03-02T09:31:47.073Z,957.15
2023-03-02T09:32:47.070Z,957.12
2023-03-02T09:33:46.973Z,957.14
2023-03-02T09:34:46.949Z,957.15
2023-03-02T09:35:46.956Z,957.14
2023-03-02T09:36:46.911Z,957.15
2023-03-02T09:37:46.957Z,957.14
2023-03-02T09:38:46.893Z,957.12
2023-03-02T09:39:46.891Z,957.13
2023-03-02T09:40:46.836Z,957.09
2023-03-02T09:41:46.894Z,957.13
2023-03-02T09:42:46.803Z,957.12
2023-03-02T09:43:46.782Z,957.13
2023-03-02T09:44:46.763Z,957.13
2023-03-02T09:45:46.809Z,957.14
2023-03-02T09:46:46.723Z,957.16
2023-03-02T09:47:46.708Z,957.17
2023-03-02T09:48:46.688Z,957.16
2023-03-02T09:49:46.676Z,957.16
2023-03-02T09:50:46.652Z,957.16
2023-03-02T09:51:46.630Z,957.14
2023-03-02T09:52:46.619Z,957.15
2023-03-02T09:53:46.593Z,957.14
2023-03-02T09:54:46.575Z,957.18
2023-03-02T09:55:46.555Z,957.18
2023-03-02T09:56:46.540Z,957.19
2023-03-02T09:57:46.639Z,957.2
2023-03-02T09:58:46.502Z,957.1
2023-03-02T09:59:46.484Z,957.13
2023-03-02T10:00:46.465Z,957.13
2023-03-02T10:01:46.446Z,957.1
2023-03-02T10:02:46.457Z,957.14
2023-03-02T10:03:46.581Z,957.16
2023-03-02T10:04:46.423Z,957.19
2023-03-02T10:05:46.380Z,957.19
2023-03-02T10:06:46.356Z,957.21
2023-03-02T10:07:46.340Z,957.18
2023-03-02T10:08:46.318Z,957.19
2023-03-02T10:09:46.300Z,957.21
2023-03-02T10:10:46.281Z,957.23
2023-03-02T10:11:46.264Z,957.2
2023-03-02T10:12:46.252Z,957.23
2023-03-02T10:13:47.545Z,957.27
2023-03-02T10:14:46.211Z,957.21
2023-03-02T10:15:46.301Z,957.22
2023-03-02T10:16:46.186Z,957.21
2023-03-02T10:17:46.179Z,957.22
2023-03-02T10:18:46.202Z,957.17
2023-03-02T10:19:46.120Z,957.18
2023-03-02T10:20:46.105Z,957.16
2023-03-02T10:21:46.096Z,957.17
2023-03-02T10:22:46.067Z,957.16
2023-03-02T10:23:46.051Z,957.17
2023-03-02T10:24:46.032Z,957.14
2023-03-02T10:25:46.013Z,957.17
2023-03-02T10:26:45.997Z,957.19
2023-03-02T10:27:45.993Z,957.2
2023-03-02T10:28:45.966Z,957.17
2023-03-02T10:29:46.215Z,957.15
2023-03-02T10:30:45.997Z,957.22
2023-03-02T10:31:45.909Z,957.19
2023-03-02T10:32:45.893Z,957.18
2023-03-02T10:33:45.875Z,957.14
2023-03-02T10:34:45.857Z,957.19
2023-03-02T10:35:45.845Z,957.14
2023-03-02T10:36:45.821Z,957.15
2023-03-02T10:37:45.823Z,957.17
2023-03-02T10:38:45.787Z,957.13
2023-03-02T10:39:45.767Z,957.18
2023-03-02T10:40:45.748Z,957.15
2023-03-02T10:41:45.736Z,957.16
2023-03-02T10:42:45.714Z,957.17
2023-03-02T10:43:45.697Z,957.13
2023-03-02T10:44:45.680Z,957.17
2023-03-02T10:45:45.784Z,957.15
2023-03-02T10:46:45.709Z,957.15
2023-03-02T10:47:45.635Z,957.14
2023-03-02T10:48:49.223Z,957.11
2023-03-02T10:49:45.597Z,957.13
2023-03-02T10:50:45.586Z,957.15
2023-03-02T10:51:45.562Z,957.12
2023-03-02T10:52:54.479Z,957.1
2023-03-02T10:53:45.528Z,957.09
2023-03-02T10:54:45.510Z,957.08
2023-03-02T10:55:45.495Z,957.1
2023-03-02T10:56:45.476Z,957.11
2023-03-02T10:57:45.460Z,957.04
2023-03-02T10:58:45.443Z,957.05
2023-03-02T10:59:45.429Z,957.03
2023-03-02T11:00:45.410Z,957.03
2023-03-02T11:01:45.458Z,957.01
2023-03-02T11:02:45.376Z,956.99
2023-03-02T11:03:45.361Z,956.98
2023-03-02T11:04:45.394Z,956.99
2023-03-02T11:05:45.351Z,956.95
2023-03-02T11:06:45.873Z,956.93
2023-03-02T11:07:45.844Z,956.94
2023-03-02T11:08:45.827Z,956.93
2023-03-02T11:09:45.812Z,956.92
2023-03-02T11:10:45.799Z,956.91
2023-03-02T11:11:45.822Z,956.9
2023-03-02T11:12:45.764Z,956.91
2023-03-02T11:13:45.743Z,956.87
2023-03-02T11:14:45.737Z,956.88
2023-03-02T11:15:45.741Z,956.85
2023-03-02T11:16:45.698Z,956.86
2023-03-02T11:17:45.704Z,956.84
2023-03-02T11:18:45.665Z,956.79
2023-03-02T11:19:45.652Z,956.79
2023-03-02T11:20:45.632Z,956.8
2023-03-02T11:21:45.615Z,956.71
2023-03-02T11:22:45.600Z,956.73
2023-03-02T11:23:45.586Z,956.77
2023-03-02T11:24:45.567Z,956.73
2023-03-02T11:25:45.551Z,956.74
2023-03-02T11:26:45.555Z,956.74
2023-03-02T11:27:45.522Z,956.72
2023-03-02T11:28:45.502Z,956.78
2023-03-02T11:29:45.489Z,956.76
2023-03-02T11:30:45.470Z,956.76
2023-03-02T11:31:45.568Z,956.72
2023-03-02T11:32:45.496Z,956.73
2023-03-02T11:33:45.512Z,956.79
2023-03-02T11:34:45.408Z,956.79
2023-03-02T11:35:45.436Z,956.72
2023-03-02T11:36:45.375Z,956.76
2023-03-02T11:37:45.370Z,956.76
2023-03-02T11:38:45.342Z,956.72
2023-03-02T11:39:54.573Z,956.71
2023-03-02T11:40:47.124Z,956.68
2023-03-02T11:41:45.297Z,956.68
2023-03-02T11:42:45.279Z,956.66
2023-03-02T11:43:45.263Z,956.68
2023-03-02T11:44:45.247Z,956.67
2023-03-02T11:45:45.233Z,956.6
2023-03-02T11:46:45.251Z,956.67
2023-03-02T11:47:47.280Z,956.65
2023-03-02T11:48:45.186Z,956.61
2023-03-02T11:49:45.193Z,956.62
2023-03-02T11:50:45.152Z,956.61
2023-03-02T11:51:53.288Z,956.59
2023-03-02T11:52:45.123Z,956.56
2023-03-02T11:53:45.163Z,956.63
2023-03-02T11:54:45.091Z,956.57
2023-03-02T11:55:45.080Z,956.58
2023-03-02T11:56:45.058Z,956.58
2023-03-02T11:57:45.040Z,956.57
2023-03-02T11:58:45.028Z,956.57
2023-03-02T11:59:45.010Z,956.57
2023-03-02T12:00:45.001Z,956.55
2023-03-02T12:01:44.993Z,956.57
2023-03-02T12:02:44.961Z,956.56
2023-03-02T12:03:44.954Z,956.53
2023-03-02T12:04:44.926Z,956.57
2023-03-02T12:05:45.012Z,956.57
2023-03-02T12:06:44.896Z,956.56
2023-03-02T12:07:44.878Z,956.56
2023-03-02T12:08:44.930Z,956.55
2023-03-02T12:09:44.849Z,956.51
2023-03-02T12:10:44.831Z,956.52
2023-03-02T12:11:44.813Z,956.49
2023-03-02T12:12:44.798Z,956.48
2023-03-02T12:13:44.780Z,956.49
2023-03-02T12:14:44.767Z,956.48
2023-03-02T12:15:44.748Z,956.5
2023-03-02T12:16:44.757Z,956.49
2023-03-02T12:17:44.750Z,956.48
2023-03-02T12:18:44.698Z,956.48
2023-03-02T12:19:44.688Z,956.42
2023-03-02T12:20:44.667Z,956.44
2023-03-02T12:21:44.675Z,956.48
2023-03-02T12:22:44.631Z,956.45
2023-03-02T12:23:44.616Z,956.44
2023-03-02T12:24:44.597Z,956.39
2023-03-02T12:25:44.596Z,956.39
2023-03-02T12:26:44.566Z,956.4
2023-03-02T12:27:44.582Z,956.4
2023-03-02T12:28:44.535Z,956.36
2023-03-02T12:29:44.522Z,956.39
2023-03-02T12:30:44.502Z,956.33
2023-03-02T12:31:44.581Z,956.33
2023-03-02T12:32:44.550Z,956.31
2023-03-02T12:33:44.456Z,956.31
2023-03-02T12:34:44.439Z,956.31
2023-03-02T12:35:44.481Z,956.32
2023-03-02T12:36:44.425Z,956.3
2023-03-02T12:37:44.414Z,956.3
2023-03-02T12:38:44.391Z,956.31
2023-03-02T12:39:44.356Z,956.26
2023-03-02T12:40:44.343Z,956.25
2023-03-02T12:41:44.321Z,956.25
2023-03-02T12:42:44.304Z,956.25
2023-03-02T12:43:44.291Z,956.23
2023-03-02T12:44:44.271Z,956.22
2023-03-02T12:45:44.309Z,956.19
2023-03-02T12:46:44.236Z,956.14
2023-03-02T12:47:44.728Z,956.2